sensor_id;sensor_type;location;lat;lon;timestamp;temperature;humidity
74178;DHT22;62540;48.456;-4.456;2023-01-08T00:02:08;10.12;72.93
74178;DHT22;62540;48.456;-4.456;2023-01-08T00:04:34;10.12;72.86
74178;DHT22;62540;48.456;-4.456;2023-01-08T00:06:59;10.13;73.17
74178;DHT22;62540;48.456;-4.456;2023-01-08T00:09:24;10.13;73.47
74178;DHT22;62540;48.456;-4.456;2023-01-08T00:11:50;10.12;73.58
74178;DHT22;62540;48.456;-4.456;2023-01-08T00:14:15;10.16;73.71
74178;DHT22;62540;48.456;-4.456;2023-01-08T00:16:41;10.15;73.89
74178;DHT22;62540;48.456;-4.456;2023-01-08T00:19:06;10.13;74.09
74178;DHT22;62540;48.456;-4.456;2023-01-08T00:21:32;10.16;73.95
74178;DHT22;62540;48.456;-4.456;2023-01-08T00:23:57;10.18;73.91
74178;DHT22;62540;48.456;-4.456;2023-01-08T00:26:23;10.19;73.79
74178;DHT22;62540;48.456;-4.456;2023-01-08T00:28:49;10.19;73.72
74178;DHT22;62540;48.456;-4.456;2023-01-08T00:31:14;10.20;73.72
74178;DHT22;62540;48.456;-4.456;2023-01-08T00:33:40;10.23;73.45
74178;DHT22;62540;48.456;-4.456;2023-01-08T00:36:11;10.25;73.48
74178;DHT22;62540;48.456;-4.456;2023-01-08T00:38:37;10.25;73.41
74178;DHT22;62540;48.456;-4.456;2023-01-08T00:41:03;10.26;73.52
74178;DHT22;62540;48.456;-4.456;2023-01-08T00:43:29;10.28;73.73
74178;DHT22;62540;48.456;-4.456;2023-01-08T00:45:54;10.32;74.00
74178;DHT22;62540;48.456;-4.456;2023-01-08T00:48:20;10.35;74.32
74178;DHT22;62540;48.456;-4.456;2023-01-08T00:50:55;10.37;74.70
74178;DHT22;62540;48.456;-4.456;2023-01-08T00:53:21;10.43;74.69
74178;DHT22;62540;48.456;-4.456;2023-01-08T00:55:47;10.45;74.88
74178;DHT22;62540;48.456;-4.456;2023-01-08T00:58:13;10.53;74.58
74178;DHT22;62540;48.456;-4.456;2023-01-08T01:00:39;10.56;74.47
74178;DHT22;62540;48.456;-4.456;2023-01-08T01:03:04;10.59;74.42
74178;DHT22;62540;48.456;-4.456;2023-01-08T01:05:30;10.63;74.47
74178;DHT22;62540;48.456;-4.456;2023-01-08T01:07:56;10.66;74.34
74178;DHT22;62540;48.456;-4.456;2023-01-08T01:10:21;10.67;74.20
74178;DHT22;62540;48.456;-4.456;2023-01-08T01:12:47;10.68;74.40
74178;DHT22;62540;48.456;-4.456;2023-01-08T01:15:15;10.73;74.43
74178;DHT22;62540;48.456;-4.456;2023-01-08T01:17:42;10.73;74.47
74178;DHT22;62540;48.456;-4.456;2023-01-08T01:20:10;10.76;74.47
74178;DHT22;62540;48.456;-4.456;2023-01-08T01:22:37;10.76;74.55
74178;DHT22;62540;48.456;-4.456;2023-01-08T01:25:03;10.78;74.65
74178;DHT22;62540;48.456;-4.456;2023-01-08T01:27:28;10.81;74.78
74178;DHT22;62540;48.456;-4.456;2023-01-08T01:29:54;10.83;75.27
74178;DHT22;62540;48.456;-4.456;2023-01-08T01:32:19;10.84;75.55
74178;DHT22;62540;48.456;-4.456;2023-01-08T01:34:45;10.84;75.56
74178;DHT22;62540;48.456;-4.456;2023-01-08T01:37:11;10.83;75.69
74178;DHT22;62540;48.456;-4.456;2023-01-08T01:39:37;10.85;75.66
74178;DHT22;62540;48.456;-4.456;2023-01-08T01:42:03;10.91;75.11
74178;DHT22;62540;48.456;-4.456;2023-01-08T01:44:44;10.88;74.79
74178;DHT22;62540;48.456;-4.456;2023-01-08T01:49:42;10.84;75.04
74178;DHT22;62540;48.456;-4.456;2023-01-08T01:52:11;10.87;75.10
74178;DHT22;62540;48.456;-4.456;2023-01-08T01:54:37;10.84;75.22
74178;DHT22;62540;48.456;-4.456;2023-01-08T01:57:03;10.80;75.59
74178;DHT22;62540;48.456;-4.456;2023-01-08T01:59:29;10.83;75.41
74178;DHT22;62540;48.456;-4.456;2023-01-08T02:01:55;10.87;75.38
74178;DHT22;62540;48.456;-4.456;2023-01-08T02:04:20;10.85;75.25
74178;DHT22;62540;48.456;-4.456;2023-01-08T02:07:00;10.81;74.91
74178;DHT22;62540;48.456;-4.456;2023-01-08T02:12:09;10.83;75.06
74178;DHT22;62540;48.456;-4.456;2023-01-08T02:20:24;10.81;75.78
74178;DHT22;62540;48.456;-4.456;2023-01-08T02:28:25;10.77;75.26
74178;DHT22;62540;48.456;-4.456;2023-01-08T02:30:51;10.78;75.04
74178;DHT22;62540;48.456;-4.456;2023-01-08T02:33:17;10.77;74.16
74178;DHT22;62540;48.456;-4.456;2023-01-08T02:35:54;10.77;74.27
74178;DHT22;62540;48.456;-4.456;2023-01-08T02:38:44;10.71;74.25
74178;DHT22;62540;48.456;-4.456;2023-01-08T02:41:13;10.68;74.98
74178;DHT22;62540;48.456;-4.456;2023-01-08T02:43:46;10.56;75.97
74178;DHT22;62540;48.456;-4.456;2023-01-08T02:46:18;10.46;76.82
74178;DHT22;62540;48.456;-4.456;2023-01-08T02:48:48;10.46;76.46
74178;DHT22;62540;48.456;-4.456;2023-01-08T02:51:27;10.49;75.53
74178;DHT22;62540;48.456;-4.456;2023-01-08T02:53:57;10.47;75.33
74178;DHT22;62540;48.456;-4.456;2023-01-08T02:56:28;10.49;74.04
74178;DHT22;62540;48.456;-4.456;2023-01-08T02:58:55;10.46;74.26
74178;DHT22;62540;48.456;-4.456;2023-01-08T03:01:22;10.46;73.96
74178;DHT22;62540;48.456;-4.456;2023-01-08T03:03:52;10.43;74.40
74178;DHT22;62540;48.456;-4.456;2023-01-08T03:06:20;10.40;74.80
74178;DHT22;62540;48.456;-4.456;2023-01-08T03:08:49;10.37;75.07
74178;DHT22;62540;48.456;-4.456;2023-01-08T03:11:17;10.36;75.30
74178;DHT22;62540;48.456;-4.456;2023-01-08T03:16:16;10.32;75.62
74178;DHT22;62540;48.456;-4.456;2023-01-08T03:18:51;10.30;75.76
74178;DHT22;62540;48.456;-4.456;2023-01-08T03:21:20;10.32;75.74
74178;DHT22;62540;48.456;-4.456;2023-01-08T03:23:47;10.29;76.04
74178;DHT22;62540;48.456;-4.456;2023-01-08T03:26:20;10.29;76.15
74178;DHT22;62540;48.456;-4.456;2023-01-08T03:28:52;10.30;76.40
74178;DHT22;62540;48.456;-4.456;2023-01-08T03:31:19;10.25;76.73
74178;DHT22;62540;48.456;-4.456;2023-01-08T03:33:46;10.25;76.38
74178;DHT22;62540;48.456;-4.456;2023-01-08T03:36:25;10.19;76.58
74178;DHT22;62540;48.456;-4.456;2023-01-08T03:39:08;10.20;76.29
74178;DHT22;62540;48.456;-4.456;2023-01-08T03:41:36;10.22;76.02
74178;DHT22;62540;48.456;-4.456;2023-01-08T03:44:02;10.20;75.60
74178;DHT22;62540;48.456;-4.456;2023-01-08T03:46:31;10.22;75.22
74178;DHT22;62540;48.456;-4.456;2023-01-08T03:48:58;10.18;74.48
74178;DHT22;62540;48.456;-4.456;2023-01-08T03:51:24;10.18;74.72
74178;DHT22;62540;48.456;-4.456;2023-01-08T03:53:53;10.15;74.94
74178;DHT22;62540;48.456;-4.456;2023-01-08T03:56:20;10.18;75.21
74178;DHT22;62540;48.456;-4.456;2023-01-08T03:58:46;10.18;75.33
74178;DHT22;62540;48.456;-4.456;2023-01-08T04:01:12;10.12;75.67
74178;DHT22;62540;48.456;-4.456;2023-01-08T04:03:37;10.16;75.88
74178;DHT22;62540;48.456;-4.456;2023-01-08T04:06:03;10.16;76.10
74178;DHT22;62540;48.456;-4.456;2023-01-08T04:08:28;10.16;76.33
74178;DHT22;62540;48.456;-4.456;2023-01-08T04:10:54;10.18;76.36
74178;DHT22;62540;48.456;-4.456;2023-01-08T04:13:19;10.20;76.30
74178;DHT22;62540;48.456;-4.456;2023-01-08T04:15:48;10.20;76.64
74178;DHT22;62540;48.456;-4.456;2023-01-08T04:18:15;10.26;76.54
74178;DHT22;62540;48.456;-4.456;2023-01-08T04:20:44;10.25;76.63
74178;DHT22;62540;48.456;-4.456;2023-01-08T04:23:09;10.30;76.47
74178;DHT22;62540;48.456;-4.456;2023-01-08T04:25:36;10.32;76.69
74178;DHT22;62540;48.456;-4.456;2023-01-08T04:28:02;10.32;76.94
74178;DHT22;62540;48.456;-4.456;2023-01-08T04:30:28;10.32;77.16
74178;DHT22;62540;48.456;-4.456;2023-01-08T04:32:53;10.32;77.36
74178;DHT22;62540;48.456;-4.456;2023-01-08T04:35:19;10.33;78.48
74178;DHT22;62540;48.456;-4.456;2023-01-08T04:37:44;10.35;77.64
74178;DHT22;62540;48.456;-4.456;2023-01-08T04:40:10;10.29;77.10
74178;DHT22;62540;48.456;-4.456;2023-01-08T04:42:35;10.25;76.48
74178;DHT22;62540;48.456;-4.456;2023-01-08T04:45:01;10.18;76.40
74178;DHT22;62540;48.456;-4.456;2023-01-08T04:47:26;10.18;76.51
74178;DHT22;62540;48.456;-4.456;2023-01-08T04:49:51;10.16;76.34
74178;DHT22;62540;48.456;-4.456;2023-01-08T04:52:17;10.08;76.28
74178;DHT22;62540;48.456;-4.456;2023-01-08T04:54:42;10.03;76.02
74178;DHT22;62540;48.456;-4.456;2023-01-08T04:57:08;9.99;75.53
74178;DHT22;62540;48.456;-4.456;2023-01-08T04:59:33;10.03;75.83
74178;DHT22;62540;48.456;-4.456;2023-01-08T05:01:58;10.03;75.75
74178;DHT22;62540;48.456;-4.456;2023-01-08T05:04:24;10.02;75.74
74178;DHT22;62540;48.456;-4.456;2023-01-08T05:06:49;9.94;76.11
74178;DHT22;62540;48.456;-4.456;2023-01-08T05:09:14;9.94;76.48
74178;DHT22;62540;48.456;-4.456;2023-01-08T05:11:40;9.95;76.62
74178;DHT22;62540;48.456;-4.456;2023-01-08T05:14:07;9.94;76.93
74178;DHT22;62540;48.456;-4.456;2023-01-08T05:16:33;9.98;77.05
74178;DHT22;62540;48.456;-4.456;2023-01-08T05:18:58;10.01;77.27
74178;DHT22;62540;48.456;-4.456;2023-01-08T05:21:23;10.02;77.23
74178;DHT22;62540;48.456;-4.456;2023-01-08T05:23:49;10.05;76.98
74178;DHT22;62540;48.456;-4.456;2023-01-08T05:26:15;10.02;77.07
74178;DHT22;62540;48.456;-4.456;2023-01-08T05:28:41;10.05;77.14
74178;DHT22;62540;48.456;-4.456;2023-01-08T05:31:07;10.08;77.19
74178;DHT22;62540;48.456;-4.456;2023-01-08T05:33:32;10.12;77.29
74178;DHT22;62540;48.456;-4.456;2023-01-08T05:35:58;10.16;77.39
74178;DHT22;62540;48.456;-4.456;2023-01-08T05:38:23;10.18;77.61
74178;DHT22;62540;48.456;-4.456;2023-01-08T05:40:52;10.19;77.87
74178;DHT22;62540;48.456;-4.456;2023-01-08T05:43:18;10.25;77.81
74178;DHT22;62540;48.456;-4.456;2023-01-08T05:45:43;10.25;78.08
74178;DHT22;62540;48.456;-4.456;2023-01-08T05:48:09;10.25;78.17
74178;DHT22;62540;48.456;-4.456;2023-01-08T05:50:34;10.26;78.05
74178;DHT22;62540;48.456;-4.456;2023-01-08T05:53:00;10.25;78.00
74178;DHT22;62540;48.456;-4.456;2023-01-08T05:55:26;10.29;77.54
74178;DHT22;62540;48.456;-4.456;2023-01-08T05:57:51;10.35;77.08
74178;DHT22;62540;48.456;-4.456;2023-01-08T06:00:17;10.33;76.71
74178;DHT22;62540;48.456;-4.456;2023-01-08T06:02:46;10.32;76.23
74178;DHT22;62540;48.456;-4.456;2023-01-08T06:05:12;10.33;76.06
74178;DHT22;62540;48.456;-4.456;2023-01-08T06:07:37;10.30;75.75
74178;DHT22;62540;48.456;-4.456;2023-01-08T06:10:03;10.29;75.89
74178;DHT22;62540;48.456;-4.456;2023-01-08T06:12:28;10.32;75.97
74178;DHT22;62540;48.456;-4.456;2023-01-08T06:14:54;10.30;76.10
74178;DHT22;62540;48.456;-4.456;2023-01-08T06:17:19;10.30;76.11
74178;DHT22;62540;48.456;-4.456;2023-01-08T06:19:44;10.29;76.57
74178;DHT22;62540;48.456;-4.456;2023-01-08T06:22:11;10.28;76.56
74178;DHT22;62540;48.456;-4.456;2023-01-08T06:24:37;10.29;76.63
74178;DHT22;62540;48.456;-4.456;2023-01-08T06:27:02;10.29;76.76
74178;DHT22;62540;48.456;-4.456;2023-01-08T06:29:27;10.29;76.79
74178;DHT22;62540;48.456;-4.456;2023-01-08T06:31:53;10.30;77.06
74178;DHT22;62540;48.456;-4.456;2023-01-08T06:34:18;10.29;77.32
74178;DHT22;62540;48.456;-4.456;2023-01-08T06:36:43;10.32;77.63
74178;DHT22;62540;48.456;-4.456;2023-01-08T06:39:09;10.32;78.06
74178;DHT22;62540;48.456;-4.456;2023-01-08T06:41:34;10.33;78.17
74178;DHT22;62540;48.456;-4.456;2023-01-08T06:44:00;10.40;78.65
74178;DHT22;62540;48.456;-4.456;2023-01-08T06:46:26;10.40;79.09
74178;DHT22;62540;48.456;-4.456;2023-01-08T06:48:51;10.49;78.53
74178;DHT22;62540;48.456;-4.456;2023-01-08T06:51:16;10.53;78.66
74178;DHT22;62540;48.456;-4.456;2023-01-08T06:53:42;10.56;78.21
74178;DHT22;62540;48.456;-4.456;2023-01-08T06:56:07;10.56;78.30
74178;DHT22;62540;48.456;-4.456;2023-01-08T06:58:36;10.59;78.56
74178;DHT22;62540;48.456;-4.456;2023-01-08T07:01:01;10.61;78.68
74178;DHT22;62540;48.456;-4.456;2023-01-08T07:03:27;10.64;79.07
74178;DHT22;62540;48.456;-4.456;2023-01-08T07:05:52;10.63;77.99
74178;DHT22;62540;48.456;-4.456;2023-01-08T07:08:18;10.60;77.21
74178;DHT22;62540;48.456;-4.456;2023-01-08T07:10:44;10.66;77.35
74178;DHT22;62540;48.456;-4.456;2023-01-08T07:13:10;10.63;77.60
74178;DHT22;62540;48.456;-4.456;2023-01-08T07:15:40;10.63;77.74
74178;DHT22;62540;48.456;-4.456;2023-01-08T07:18:07;10.57;77.92
74178;DHT22;62540;48.456;-4.456;2023-01-08T07:20:33;10.57;77.48
74178;DHT22;62540;48.456;-4.456;2023-01-08T07:23:00;10.52;77.59
74178;DHT22;62540;48.456;-4.456;2023-01-08T07:25:26;10.56;77.33
74178;DHT22;62540;48.456;-4.456;2023-01-08T07:27:52;10.59;77.64
74178;DHT22;62540;48.456;-4.456;2023-01-08T07:30:17;10.60;78.02
74178;DHT22;62540;48.456;-4.456;2023-01-08T07:32:43;10.64;77.92
74178;DHT22;62540;48.456;-4.456;2023-01-08T07:35:08;10.61;77.09
74178;DHT22;62540;48.456;-4.456;2023-01-08T07:37:33;10.61;77.76
74178;DHT22;62540;48.456;-4.456;2023-01-08T07:39:59;10.64;78.26
74178;DHT22;62540;48.456;-4.456;2023-01-08T07:42:24;10.64;78.07
74178;DHT22;62540;48.456;-4.456;2023-01-08T07:44:50;10.67;77.80
74178;DHT22;62540;48.456;-4.456;2023-01-08T07:47:15;10.73;77.59
74178;DHT22;62540;48.456;-4.456;2023-01-08T07:49:41;10.74;77.29
74178;DHT22;62540;48.456;-4.456;2023-01-08T07:52:06;10.73;77.17
74178;DHT22;62540;48.456;-4.456;2023-01-08T07:54:32;10.74;77.14
74178;DHT22;62540;48.456;-4.456;2023-01-08T07:56:57;10.73;77.09
74178;DHT22;62540;48.456;-4.456;2023-01-08T07:59:22;10.68;77.10
74178;DHT22;62540;48.456;-4.456;2023-01-08T08:01:48;10.61;76.54
74178;DHT22;62540;48.456;-4.456;2023-01-08T08:04:14;10.67;76.25
74178;DHT22;62540;48.456;-4.456;2023-01-08T08:06:40;10.66;75.47
74178;DHT22;62540;48.456;-4.456;2023-01-08T08:09:05;10.64;75.24
74178;DHT22;62540;48.456;-4.456;2023-01-08T08:11:30;10.67;75.24
74178;DHT22;62540;48.456;-4.456;2023-01-08T08:13:56;10.68;75.15
74178;DHT22;62540;48.456;-4.456;2023-01-08T08:16:21;10.63;75.22
74178;DHT22;62540;48.456;-4.456;2023-01-08T08:18:47;10.61;75.49
74178;DHT22;62540;48.456;-4.456;2023-01-08T08:21:12;10.64;75.60
74178;DHT22;62540;48.456;-4.456;2023-01-08T08:23:37;10.60;75.75
74178;DHT22;62540;48.456;-4.456;2023-01-08T08:26:04;10.57;75.89
74178;DHT22;62540;48.456;-4.456;2023-01-08T08:28:29;10.56;75.92
74178;DHT22;62540;48.456;-4.456;2023-01-08T08:30:55;10.59;76.07
74178;DHT22;62540;48.456;-4.456;2023-01-08T08:33:20;10.60;76.08
74178;DHT22;62540;48.456;-4.456;2023-01-08T08:35:49;10.64;76.26
74178;DHT22;62540;48.456;-4.456;2023-01-08T08:38:16;10.64;76.38
74178;DHT22;62540;48.456;-4.456;2023-01-08T08:40:41;10.68;76.64
74178;DHT22;62540;48.456;-4.456;2023-01-08T08:43:07;10.71;76.64
74178;DHT22;62540;48.456;-4.456;2023-01-08T08:45:34;10.77;76.70
74178;DHT22;62540;48.456;-4.456;2023-01-08T08:48:00;10.80;76.86
74178;DHT22;62540;48.456;-4.456;2023-01-08T08:50:25;10.84;76.87
74178;DHT22;62540;48.456;-4.456;2023-01-08T08:52:50;10.83;76.87
74178;DHT22;62540;48.456;-4.456;2023-01-08T08:55:16;10.91;76.84
74178;DHT22;62540;48.456;-4.456;2023-01-08T08:57:45;10.98;76.85
74178;DHT22;62540;48.456;-4.456;2023-01-08T09:00:12;11.01;76.68
74178;DHT22;62540;48.456;-4.456;2023-01-08T09:02:38;11.05;76.71
74178;DHT22;62540;48.456;-4.456;2023-01-08T09:05:04;11.04;76.81
74178;DHT22;62540;48.456;-4.456;2023-01-08T09:07:30;11.12;76.72
74178;DHT22;62540;48.456;-4.456;2023-01-08T09:09:55;11.15;76.65
74178;DHT22;62540;48.456;-4.456;2023-01-08T09:12:21;11.18;76.51
74178;DHT22;62540;48.456;-4.456;2023-01-08T09:14:46;11.24;76.82
74178;DHT22;62540;48.456;-4.456;2023-01-08T09:17:14;11.22;76.74
74178;DHT22;62540;48.456;-4.456;2023-01-08T09:19:39;11.26;76.72
74178;DHT22;62540;48.456;-4.456;2023-01-08T09:22:05;11.28;76.57
74178;DHT22;62540;48.456;-4.456;2023-01-08T09:24:30;11.35;76.46
74178;DHT22;62540;48.456;-4.456;2023-01-08T09:26:58;11.38;76.41
74178;DHT22;62540;48.456;-4.456;2023-01-08T09:29:24;11.36;76.44
74178;DHT22;62540;48.456;-4.456;2023-01-08T09:31:50;11.38;76.46
74178;DHT22;62540;48.456;-4.456;2023-01-08T09:34:15;11.40;76.43
74178;DHT22;62540;48.456;-4.456;2023-01-08T09:36:41;11.45;76.38
74178;DHT22;62540;48.456;-4.456;2023-01-08T09:39:06;11.43;75.95
74178;DHT22;62540;48.456;-4.456;2023-01-08T09:41:38;11.46;75.68
74178;DHT22;62540;48.456;-4.456;2023-01-08T09:44:06;11.43;75.51
74178;DHT22;62540;48.456;-4.456;2023-01-08T09:46:32;11.55;75.60
74178;DHT22;62540;48.456;-4.456;2023-01-08T09:49:03;11.59;75.37
74178;DHT22;62540;48.456;-4.456;2023-01-08T09:51:34;11.63;75.19
74178;DHT22;62540;48.456;-4.456;2023-01-08T09:54:00;11.53;72.37
74178;DHT22;62540;48.456;-4.456;2023-01-08T09:56:26;11.42;72.71
74178;DHT22;62540;48.456;-4.456;2023-01-08T09:59:00;11.31;73.44
74178;DHT22;62540;48.456;-4.456;2023-01-08T10:01:37;11.10;74.18
74178;DHT22;62540;48.456;-4.456;2023-01-08T10:04:13;10.93;74.78
74178;DHT22;62540;48.456;-4.456;2023-01-08T10:06:40;10.88;75.12
74178;DHT22;62540;48.456;-4.456;2023-01-08T10:09:11;10.78;75.26
74178;DHT22;62540;48.456;-4.456;2023-01-08T10:11:44;10.68;75.74
74178;DHT22;62540;48.456;-4.456;2023-01-08T10:14:21;10.60;76.03
74178;DHT22;62540;48.456;-4.456;2023-01-08T10:16:51;10.55;76.18
74178;DHT22;62540;48.456;-4.456;2023-01-08T10:19:18;10.52;76.26
74178;DHT22;62540;48.456;-4.456;2023-01-08T10:21:43;10.46;75.92
74178;DHT22;62540;48.456;-4.456;2023-01-08T10:24:08;10.33;75.96
74178;DHT22;62540;48.456;-4.456;2023-01-08T10:26:36;10.35;75.74
74178;DHT22;62540;48.456;-4.456;2023-01-08T10:31:50;10.29;76.22
74178;DHT22;62540;48.456;-4.456;2023-01-08T10:34:31;10.36;76.72
74178;DHT22;62540;48.456;-4.456;2023-01-08T10:36:57;10.64;76.92
74178;DHT22;62540;48.456;-4.456;2023-01-08T10:39:25;10.68;75.81
74178;DHT22;62540;48.456;-4.456;2023-01-08T10:41:54;10.74;75.43
74178;DHT22;62540;48.456;-4.456;2023-01-08T10:44:22;10.83;75.53
74178;DHT22;62540;48.456;-4.456;2023-01-08T10:46:52;11.04;75.31
74178;DHT22;62540;48.456;-4.456;2023-01-08T10:51:52;11.55;74.74
74178;DHT22;62540;48.456;-4.456;2023-01-08T10:54:37;11.76;74.39
74178;DHT22;62540;48.456;-4.456;2023-01-08T10:57:28;11.74;73.59
74178;DHT22;62540;48.456;-4.456;2023-01-08T10:59:54;11.82;74.32
74178;DHT22;62540;48.456;-4.456;2023-01-08T11:02:31;11.94;73.70
74178;DHT22;62540;48.456;-4.456;2023-01-08T11:04:58;11.98;73.71
74178;DHT22;62540;48.456;-4.456;2023-01-08T11:07:24;12.05;73.88
74178;DHT22;62540;48.456;-4.456;2023-01-08T11:09:51;12.13;74.37
74178;DHT22;62540;48.456;-4.456;2023-01-08T11:12:37;12.08;74.14
74178;DHT22;62540;48.456;-4.456;2023-01-08T11:15:27;12.08;74.33
74178;DHT22;62540;48.456;-4.456;2023-01-08T11:17:53;11.98;74.54
74178;DHT22;62540;48.456;-4.456;2023-01-08T11:20:27;11.95;75.09
74178;DHT22;62540;48.456;-4.456;2023-01-08T11:23:36;11.95;75.35
74178;DHT22;62540;48.456;-4.456;2023-01-08T11:26:14;12.01;75.48
74178;DHT22;62540;48.456;-4.456;2023-01-08T11:28:59;12.00;75.92
74178;DHT22;62540;48.456;-4.456;2023-01-08T11:34:33;12.11;75.90
74178;DHT22;62540;48.456;-4.456;2023-01-08T11:37:13;12.08;75.93
74178;DHT22;62540;48.456;-4.456;2023-01-08T11:39:39;12.13;75.36
74178;DHT22;62540;48.456;-4.456;2023-01-08T11:42:14;12.11;74.31
74178;DHT22;62540;48.456;-4.456;2023-01-08T11:47:50;12.08;74.46
74178;DHT22;62540;48.456;-4.456;2023-01-08T11:50:27;12.05;75.21
74178;DHT22;62540;48.456;-4.456;2023-01-08T11:53:33;12.00;75.66
74178;DHT22;62540;48.456;-4.456;2023-01-08T12:09:42;12.08;74.45
74178;DHT22;62540;48.456;-4.456;2023-01-08T12:12:13;11.91;73.71
74178;DHT22;62540;48.456;-4.456;2023-01-08T12:17:37;11.83;73.70
74178;DHT22;62540;48.456;-4.456;2023-01-08T12:36:36;11.73;73.41
74178;DHT22;62540;48.456;-4.456;2023-01-08T12:39:10;11.70;73.42
74178;DHT22;62540;48.456;-4.456;2023-01-08T12:41:38;11.65;73.44
74178;DHT22;62540;48.456;-4.456;2023-01-08T12:44:05;11.63;73.54
74178;DHT22;62540;48.456;-4.456;2023-01-08T12:46:42;11.61;73.33
74178;DHT22;62540;48.456;-4.456;2023-01-08T12:49:10;11.55;72.98
74178;DHT22;62540;48.456;-4.456;2023-01-08T13:00:03;11.52;73.65
74178;DHT22;62540;48.456;-4.456;2023-01-08T13:07:46;11.51;72.31
74178;DHT22;62540;48.456;-4.456;2023-01-08T13:12:53;11.49;72.67
74178;DHT22;62540;48.456;-4.456;2023-01-08T13:15:25;11.51;72.09
74178;DHT22;62540;48.456;-4.456;2023-01-08T13:17:53;11.56;72.04
74178;DHT22;62540;48.456;-4.456;2023-01-08T13:20:28;11.56;72.12
74178;DHT22;62540;48.456;-4.456;2023-01-08T13:22:56;11.58;72.13
74178;DHT22;62540;48.456;-4.456;2023-01-08T13:25:31;11.59;71.96
74178;DHT22;62540;48.456;-4.456;2023-01-08T13:27:57;11.61;72.03
74178;DHT22;62540;48.456;-4.456;2023-01-08T13:30:49;11.74;72.37
74178;DHT22;62540;48.456;-4.456;2023-01-08T13:33:44;11.83;72.34
74178;DHT22;62540;48.456;-4.456;2023-01-08T13:38:40;11.94;72.27
74178;DHT22;62540;48.456;-4.456;2023-01-08T13:41:23;11.98;71.86
74178;DHT22;62540;48.456;-4.456;2023-01-08T13:43:54;12.03;72.08
74178;DHT22;62540;48.456;-4.456;2023-01-08T13:46:21;12.10;72.01
74178;DHT22;62540;48.456;-4.456;2023-01-08T13:56:31;12.00;69.83
74178;DHT22;62540;48.456;-4.456;2023-01-08T13:58:57;12.01;69.15
74178;DHT22;62540;48.456;-4.456;2023-01-08T14:01:22;12.01;69.03
74178;DHT22;62540;48.456;-4.456;2023-01-08T14:03:48;12.05;69.59
74178;DHT22;62540;48.456;-4.456;2023-01-08T14:06:25;12.10;68.78
74178;DHT22;62540;48.456;-4.456;2023-01-08T14:09:02;12.05;68.39
74178;DHT22;62540;48.456;-4.456;2023-01-08T14:11:31;12.08;68.35
74178;DHT22;62540;48.456;-4.456;2023-01-08T14:13:57;12.10;69.11
74178;DHT22;62540;48.456;-4.456;2023-01-08T14:16:23;12.08;68.18
74178;DHT22;62540;48.456;-4.456;2023-01-08T14:18:50;12.07;67.43
74178;DHT22;62540;48.456;-4.456;2023-01-08T14:21:20;12.03;67.67
74178;DHT22;62540;48.456;-4.456;2023-01-08T14:23:48;12.01;68.23
74178;DHT22;62540;48.456;-4.456;2023-01-08T14:26:31;12.03;69.16
74178;DHT22;62540;48.456;-4.456;2023-01-08T14:28:57;12.05;69.36
74178;DHT22;62540;48.456;-4.456;2023-01-08T14:31:25;12.05;68.83
74178;DHT22;62540;48.456;-4.456;2023-01-08T14:33:53;12.01;67.86
74178;DHT22;62540;48.456;-4.456;2023-01-08T14:36:19;12.03;68.86
74178;DHT22;62540;48.456;-4.456;2023-01-08T14:38:45;12.03;68.69
74178;DHT22;62540;48.456;-4.456;2023-01-08T14:41:18;12.04;68.90
74178;DHT22;62540;48.456;-4.456;2023-01-08T14:43:47;11.93;68.89
74178;DHT22;62540;48.456;-4.456;2023-01-08T14:48:45;11.91;69.96
74178;DHT22;62540;48.456;-4.456;2023-01-08T14:51:13;11.93;69.70
74178;DHT22;62540;48.456;-4.456;2023-01-08T14:53:45;11.91;68.53
74178;DHT22;62540;48.456;-4.456;2023-01-08T14:56:13;11.86;67.72
74178;DHT22;62540;48.456;-4.456;2023-01-08T14:58:41;11.84;67.25
74178;DHT22;62540;48.456;-4.456;2023-01-08T15:03:41;11.87;68.61
74178;DHT22;62540;48.456;-4.456;2023-01-08T15:06:09;11.89;67.81
74178;DHT22;62540;48.456;-4.456;2023-01-08T15:08:40;11.87;67.95
74178;DHT22;62540;48.456;-4.456;2023-01-08T15:11:22;11.80;66.70
74178;DHT22;62540;48.456;-4.456;2023-01-08T15:13:49;11.74;65.28
74178;DHT22;62540;48.456;-4.456;2023-01-08T15:16:31;11.63;65.20
74178;DHT22;62540;48.456;-4.456;2023-01-08T15:19:11;11.46;64.44
74178;DHT22;62540;48.456;-4.456;2023-01-08T15:21:38;11.36;65.27
74178;DHT22;62540;48.456;-4.456;2023-01-08T15:26:45;11.26;66.59
74178;DHT22;62540;48.456;-4.456;2023-01-08T15:29:18;11.18;66.90
74178;DHT22;62540;48.456;-4.456;2023-01-08T15:31:47;11.12;67.13
74178;DHT22;62540;48.456;-4.456;2023-01-08T15:34:13;11.04;67.00
74178;DHT22;62540;48.456;-4.456;2023-01-08T15:36:40;10.93;66.29
74178;DHT22;62540;48.456;-4.456;2023-01-08T15:39:05;10.94;66.08
74178;DHT22;62540;48.456;-4.456;2023-01-08T15:41:36;10.91;66.28
74178;DHT22;62540;48.456;-4.456;2023-01-08T15:44:20;10.91;66.82
74178;DHT22;62540;48.456;-4.456;2023-01-08T15:46:45;10.91;66.75
74178;DHT22;62540;48.456;-4.456;2023-01-08T15:49:11;10.88;66.74
74178;DHT22;62540;48.456;-4.456;2023-01-08T15:51:42;10.91;66.77
74178;DHT22;62540;48.456;-4.456;2023-01-08T15:54:10;10.87;67.37
74178;DHT22;62540;48.456;-4.456;2023-01-08T15:56:36;10.84;67.77
74178;DHT22;62540;48.456;-4.456;2023-01-08T15:59:01;10.81;68.26
74178;DHT22;62540;48.456;-4.456;2023-01-08T16:01:27;10.76;67.72
74178;DHT22;62540;48.456;-4.456;2023-01-08T16:03:53;10.76;68.29
74178;DHT22;62540;48.456;-4.456;2023-01-08T16:06:18;10.73;67.80
74178;DHT22;62540;48.456;-4.456;2023-01-08T16:08:43;10.76;67.99
74178;DHT22;62540;48.456;-4.456;2023-01-08T16:11:11;10.74;67.80
74178;DHT22;62540;48.456;-4.456;2023-01-08T16:13:37;10.74;68.09
74178;DHT22;62540;48.456;-4.456;2023-01-08T16:16:08;10.70;67.52
74178;DHT22;62540;48.456;-4.456;2023-01-08T16:18:34;10.66;67.65
74178;DHT22;62540;48.456;-4.456;2023-01-08T16:21:00;10.66;67.65
74178;DHT22;62540;48.456;-4.456;2023-01-08T16:23:25;10.57;66.90
74178;DHT22;62540;48.456;-4.456;2023-01-08T16:25:51;10.56;67.92
74178;DHT22;62540;48.456;-4.456;2023-01-08T16:28:16;10.60;67.67
74178;DHT22;62540;48.456;-4.456;2023-01-08T16:30:41;10.57;67.70
74178;DHT22;62540;48.456;-4.456;2023-01-08T16:33:08;10.57;67.86
74178;DHT22;62540;48.456;-4.456;2023-01-08T16:35:33;10.60;67.81
74178;DHT22;62540;48.456;-4.456;2023-01-08T16:37:59;10.59;68.36
74178;DHT22;62540;48.456;-4.456;2023-01-08T16:40:24;10.60;68.57
74178;DHT22;62540;48.456;-4.456;2023-01-08T16:42:49;10.61;68.39
74178;DHT22;62540;48.456;-4.456;2023-01-08T16:45:15;10.59;68.59
74178;DHT22;62540;48.456;-4.456;2023-01-08T16:47:40;10.56;68.76
74178;DHT22;62540;48.456;-4.456;2023-01-08T16:50:06;10.50;69.05
74178;DHT22;62540;48.456;-4.456;2023-01-08T16:52:32;10.52;69.03
74178;DHT22;62540;48.456;-4.456;2023-01-08T16:54:57;10.55;68.63
74178;DHT22;62540;48.456;-4.456;2023-01-08T16:57:23;10.52;68.07
74178;DHT22;62540;48.456;-4.456;2023-01-08T16:59:48;10.50;68.22
74178;DHT22;62540;48.456;-4.456;2023-01-08T17:02:14;10.52;68.35